createdAt,value
2022-11-29T00:01:29.192Z,11.62
2022-11-29T00:03:57.977Z,11.61
2022-11-29T00:06:27.138Z,11.29
2022-11-29T00:08:55.106Z,11.16
2022-11-29T00:11:37.590Z,11.14
2022-11-29T00:14:05.508Z,11.56
2022-11-29T00:16:32.973Z,11.56
2022-11-29T00:19:01.809Z,11.57
2022-11-29T00:21:29.356Z,11.57
2022-11-29T00:23:56.822Z,11.57
2022-11-29T00:26:24.253Z,11.56
2022-11-29T00:28:51.669Z,11.56
2022-11-29T00:31:20.255Z,11.23
2022-11-29T00:33:47.693Z,11.52
2022-11-29T00:36:16.696Z,11.52
2022-11-29T00:38:44.181Z,11.52
2022-11-29T00:41:12.060Z,11.11
2022-11-29T00:43:39.583Z,11.48
2022-11-29T00:46:07.948Z,11.48
2022-11-29T00:48:35.525Z,11.48
2022-11-29T00:51:03.186Z,11.48
2022-11-29T00:53:31.950Z,11.22
2022-11-29T00:55:59.386Z,11.45
2022-11-29T00:58:27.306Z,11.48
2022-11-29T01:00:55.058Z,11.48
2022-11-29T01:03:22.620Z,11.44
2022-11-29T01:05:50.084Z,11.43
2022-11-29T01:08:17.687Z,11.44
2022-11-29T01:10:46.428Z,11.43
2022-11-29T01:13:13.840Z,11.42
2022-11-29T01:15:41.498Z,11.43
2022-11-29T01:18:08.929Z,11.41
2022-11-29T01:20:36.356Z,11.43
2022-11-29T01:23:03.804Z,11.42
2022-11-29T01:25:31.998Z,11.39
2022-11-29T01:28:00.786Z,11.40
2022-11-29T01:30:28.265Z,11.37
2022-11-29T01:32:55.770Z,11.37
2022-11-29T01:35:23.273Z,11.32
2022-11-29T01:37:50.725Z,11.37
2022-11-29T01:40:18.380Z,11.36
2022-11-29T01:42:45.810Z,11.34
2022-11-29T01:45:22.761Z,11.35
2022-11-29T01:47:50.244Z,11.31
2022-11-29T01:50:17.772Z,11.31
2022-11-29T01:52:45.199Z,11.30
2022-11-29T01:55:12.617Z,11.30
2022-11-29T01:57:41.330Z,11.31
2022-11-29T02:00:10.917Z,11.09
2022-11-29T02:02:42.051Z,11.09
2022-11-29T02:05:10.108Z,11.30
2022-11-29T02:07:37.619Z,11.29
2022-11-29T02:10:05.809Z,11.29
2022-11-29T02:12:39.101Z,11.30
2022-11-29T02:15:17.385Z,11.10
2022-11-29T02:17:53.397Z,11.29
2022-11-29T02:20:56.319Z,10.59
2022-11-29T02:23:46.612Z,11.30
2022-11-29T02:26:19.393Z,11.12
2022-11-29T02:28:55.967Z,11.28
2022-11-29T02:31:49.842Z,11.26
2022-11-29T02:34:47.894Z,11.24
2022-11-29T02:37:29.530Z,11.01
2022-11-29T02:40:01.949Z,11.24
2022-11-29T02:42:59.652Z,11.24
2022-11-29T02:45:36.778Z,11.22
2022-11-29T02:48:12.958Z,10.98
2022-11-29T02:50:43.031Z,10.97
2022-11-29T02:53:13.789Z,10.89
2022-11-29T02:55:44.277Z,11.05
2022-11-29T02:58:17.761Z,11.16
2022-11-29T03:00:49.544Z,11.16
2022-11-29T03:03:21.349Z,11.15
2022-11-29T03:05:51.850Z,11.16
2022-11-29T03:08:23.587Z,11.17
2022-11-29T03:10:56.595Z,11.17
2022-11-29T03:13:29.020Z,10.91
2022-11-29T03:15:59.442Z,11.11
2022-11-29T03:18:34.020Z,11.18
2022-11-29T03:21:09.567Z,11.17
2022-11-29T03:23:38.565Z,11.15
2022-11-29T03:26:07.392Z,11.14
2022-11-29T03:28:36.919Z,10.97
2022-11-29T03:31:07.704Z,11.13
2022-11-29T03:33:40.097Z,10.96
2022-11-29T03:36:11.361Z,11.10
2022-11-29T03:38:40.778Z,11.11
2022-11-29T03:41:15.091Z,11.08
2022-11-29T03:43:44.111Z,10.91
2022-11-29T03:46:12.953Z,11.06
2022-11-29T03:48:41.803Z,11.07
2022-11-29T03:51:12.932Z,11.05
2022-11-29T03:53:43.058Z,11.04
2022-11-29T03:56:23.346Z,11.02
2022-11-29T03:58:53.093Z,11.04
2022-11-29T04:01:44.415Z,11.05
2022-11-29T04:04:49.612Z,11.05
2022-11-29T04:07:29.297Z,11.06
2022-11-29T04:10:15.279Z,11.06
2022-11-29T04:13:02.701Z,11.05
2022-11-29T04:16:03.726Z,11.05
2022-11-29T04:18:56.008Z,11.06
2022-11-29T04:21:56.864Z,11.06
2022-11-29T04:24:54.582Z,11.05
2022-11-29T04:27:31.335Z,11.03
2022-11-29T04:30:07.170Z,11.04
2022-11-29T04:33:02.927Z,11.02
2022-11-29T04:36:05.820Z,11.03
2022-11-29T04:39:05.660Z,11.02
2022-11-29T04:41:54.773Z,10.90
2022-11-29T04:44:40.129Z,10.93
2022-11-29T04:47:29.683Z,11.02
2022-11-29T04:50:09.713Z,10.90
2022-11-29T04:55:00.195Z,10.81
2022-11-29T04:57:33.540Z,11.03
2022-11-29T05:00:07.134Z,10.98
2022-11-29T05:02:36.151Z,10.79
2022-11-29T05:05:07.710Z,11.00
2022-11-29T05:07:37.275Z,11.05
2022-11-29T05:10:13.341Z,11.03
2022-11-29T05:12:46.140Z,11.05
2022-11-29T05:15:38.836Z,11.04
2022-11-29T05:18:08.503Z,11.07
2022-11-29T05:20:39.922Z,11.03
2022-11-29T05:23:18.902Z,11.15
2022-11-29T05:25:47.893Z,11.13
2022-11-29T05:28:21.159Z,11.18
2022-11-29T05:31:02.332Z,11.20
2022-11-29T05:33:38.685Z,11.02
2022-11-29T05:36:08.861Z,11.18
2022-11-29T05:38:41.728Z,11.22
2022-11-29T05:41:16.416Z,11.23
2022-11-29T05:43:54.579Z,11.25
2022-11-29T05:46:23.707Z,11.26
2022-11-29T05:48:57.685Z,11.05
2022-11-29T05:51:31.900Z,11.28
2022-11-29T05:54:03.044Z,11.14
2022-11-29T05:56:37.255Z,11.33
2022-11-29T05:59:08.495Z,11.33
2022-11-29T06:01:38.588Z,11.36
2022-11-29T06:04:11.674Z,11.37
2022-11-29T06:06:44.304Z,11.36
2022-11-29T06:09:16.070Z,11.42
2022-11-29T06:11:45.343Z,11.44
2022-11-29T06:14:22.617Z,11.49
2022-11-29T06:17:01.764Z,11.21
2022-11-29T06:19:39.177Z,11.55
2022-11-29T06:22:20.802Z,11.12
2022-11-29T06:24:58.326Z,11.63
2022-11-29T06:27:35.193Z,11.20
2022-11-29T06:30:07.704Z,11.71
2022-11-29T06:32:40.085Z,11.57
2022-11-29T06:35:10.361Z,11.73
2022-11-29T06:37:39.337Z,11.50
2022-11-29T06:40:09.586Z,11.91
2022-11-29T06:42:37.011Z,11.88
2022-11-29T06:45:07.322Z,12.08
2022-11-29T06:47:38.505Z,12.17
2022-11-29T06:50:14.639Z,12.31
2022-11-29T06:52:44.707Z,12.18
2022-11-29T06:55:15.925Z,12.51
2022-11-29T06:57:54.577Z,12.65
2022-11-29T07:00:25.520Z,12.48
2022-11-29T07:03:00.617Z,12.75
2022-11-29T07:05:28.827Z,12.85
2022-11-29T07:07:57.443Z,12.42
2022-11-29T07:10:25.568Z,12.97
2022-11-29T07:12:53.452Z,13.03
2022-11-29T07:15:23.252Z,13.11
2022-11-29T07:17:58.744Z,13.19
2022-11-29T07:20:30.144Z,13.27
2022-11-29T07:23:01.959Z,12.98
2022-11-29T07:25:33.924Z,13.41
2022-11-29T07:28:06.103Z,13.46
2022-11-29T07:30:37.456Z,13.42
2022-11-29T07:33:07.344Z,13.56
2022-11-29T07:35:38.239Z,13.60
2022-11-29T07:38:10.696Z,13.49
2022-11-29T07:40:41.693Z,13.70
2022-11-29T07:43:17.535Z,13.73
2022-11-29T07:45:46.665Z,13.74
2022-11-29T07:48:14.120Z,13.78
2022-11-29T07:50:41.609Z,13.58
2022-11-29T07:53:10.395Z,13.82
2022-11-29T07:55:37.859Z,13.86
2022-11-29T07:58:05.305Z,13.90
2022-11-29T08:00:32.789Z,13.92
2022-11-29T08:03:01.589Z,14.01
2022-11-29T08:05:29.023Z,14.05
2022-11-29T08:07:56.627Z,14.08
2022-11-29T08:10:24.107Z,14.09
2022-11-29T08:12:51.609Z,13.79
2022-11-29T08:15:19.363Z,14.14
2022-11-29T08:17:46.797Z,14.14
2022-11-29T08:20:16.424Z,14.18
2022-11-29T08:22:43.998Z,14.20
2022-11-29T08:25:11.488Z,14.25
2022-11-29T08:27:39.052Z,13.85
2022-11-29T08:30:07.639Z,14.46
2022-11-29T08:32:35.211Z,14.57
2022-11-29T08:35:02.747Z,14.69
2022-11-29T08:37:31.493Z,14.78
2022-11-29T08:39:58.963Z,14.85
2022-11-29T08:42:26.425Z,14.91
2022-11-29T08:44:53.877Z,14.96
2022-11-29T08:47:36.561Z,15.01
2022-11-29T08:50:04.566Z,15.05
2022-11-29T08:52:52.007Z,15.09
2022-11-29T08:55:19.863Z,15.10
2022-11-29T08:57:47.313Z,15.12
2022-11-29T09:00:15.808Z,15.13
2022-11-29T09:02:43.263Z,15.14
2022-11-29T09:05:11.052Z,15.17
2022-11-29T09:07:39.884Z,15.21
2022-11-29T09:10:08.790Z,15.22
2022-11-29T09:12:36.421Z,15.23
2022-11-29T09:15:04.669Z,15.14
2022-11-29T09:17:32.110Z,15.26
2022-11-29T09:19:59.551Z,15.26
2022-11-29T09:22:27.003Z,15.29
2022-11-29T09:24:55.776Z,15.27
2022-11-29T09:27:23.197Z,15.29
2022-11-29T09:29:50.640Z,14.97
2022-11-29T09:32:18.060Z,15.30
2022-11-29T09:34:45.881Z,15.32
2022-11-29T09:37:13.519Z,15.32
2022-11-29T09:39:41.576Z,15.32
2022-11-29T09:42:15.883Z,15.26
2022-11-29T09:44:50.709Z,15.05
2022-11-29T09:47:25.921Z,15.33
2022-11-29T09:49:57.245Z,15.45
2022-11-29T09:52:31.413Z,15.43
2022-11-29T09:55:02.530Z,15.05
2022-11-29T09:57:31.309Z,15.40
2022-11-29T09:59:59.841Z,15.09
2022-11-29T10:02:31.007Z,14.98
2022-11-29T10:05:01.509Z,14.97
2022-11-29T10:07:31.256Z,15.39
2022-11-29T10:10:01.936Z,15.37
2022-11-29T10:12:34.872Z,15.47
2022-11-29T10:15:04.384Z,15.09
2022-11-29T10:17:34.797Z,15.06
2022-11-29T10:20:05.421Z,15.45
2022-11-29T10:22:38.556Z,15.41
2022-11-29T10:25:06.735Z,14.94
2022-11-29T10:27:35.510Z,15.35
2022-11-29T10:30:02.955Z,15.35
2022-11-29T10:32:31.863Z,14.95
2022-11-29T10:35:00.763Z,15.36
2022-11-29T10:37:32.369Z,15.36
2022-11-29T10:40:04.122Z,15.07
2022-11-29T10:42:49.791Z,15.38
2022-11-29T10:45:20.180Z,15.43
2022-11-29T10:47:48.180Z,15.18
2022-11-29T10:50:18.429Z,15.45
2022-11-29T10:52:45.855Z,15.46
2022-11-29T10:55:13.885Z,15.12
2022-11-29T10:58:08.629Z,15.49
2022-11-29T11:00:45.435Z,15.49
2022-11-29T11:03:25.500Z,15.51
2022-11-29T11:06:01.101Z,15.42
2022-11-29T11:08:28.819Z,15.18
2022-11-29T11:11:01.176Z,15.53
2022-11-29T11:13:30.400Z,15.19
2022-11-29T11:16:00.326Z,15.56
2022-11-29T11:18:29.130Z,15.29
2022-11-29T11:20:57.939Z,15.56
2022-11-29T11:23:26.684Z,15.29
2022-11-29T11:25:58.223Z,15.36
2022-11-29T11:28:27.109Z,15.62
2022-11-29T11:30:55.576Z,15.65
2022-11-29T11:33:25.947Z,15.65
2022-11-29T11:36:08.019Z,15.67
2022-11-29T11:38:36.039Z,15.65
2022-11-29T11:41:13.559Z,15.66
2022-11-29T11:43:41.212Z,15.66
2022-11-29T11:46:09.996Z,15.67
2022-11-29T11:48:40.289Z,15.69
2022-11-29T11:51:09.028Z,15.71
2022-11-29T11:53:37.289Z,15.72
2022-11-29T11:56:06.258Z,15.74
2022-11-29T11:58:34.667Z,15.76
2022-11-29T12:01:14.381Z,15.76
2022-11-29T12:03:50.715Z,15.41
2022-11-29T12:06:26.037Z,15.79
2022-11-29T12:08:54.696Z,15.79
2022-11-29T12:11:22.165Z,15.81
2022-11-29T12:13:51.820Z,15.81
2022-11-29T12:16:27.168Z,15.75
2022-11-29T12:18:58.810Z,15.90
2022-11-29T12:21:27.327Z,15.91
2022-11-29T12:23:57.663Z,15.91
2022-11-29T12:26:56.007Z,15.91
2022-11-29T12:29:15.184Z,15.92
2022-11-29T12:31:58.070Z,15.69
2022-11-29T12:34:47.506Z,15.99
2022-11-29T12:37:17.145Z,15.98
2022-11-29T12:39:49.925Z,15.99
2022-11-29T12:42:22.245Z,16.01
2022-11-29T12:44:54.248Z,16.01
2022-11-29T12:47:35.546Z,16.02
2022-11-29T12:50:12.929Z,16.01
2022-11-29T12:52:43.560Z,15.92
2022-11-29T12:55:17.487Z,15.96
2022-11-29T12:57:47.388Z,15.72
2022-11-29T13:00:16.373Z,15.94
2022-11-29T13:02:53.882Z,16.04
2022-11-29T13:05:27.782Z,15.98
2022-11-29T13:08:02.246Z,15.50
2022-11-29T13:10:33.957Z,16.06
2022-11-29T13:13:03.984Z,16.07
2022-11-29T13:15:36.626Z,15.80
2022-11-29T13:18:06.159Z,16.08
2022-11-29T13:20:39.084Z,16.07
2022-11-29T13:23:12.574Z,16.06
2022-11-29T13:25:41.140Z,15.57
2022-11-29T13:28:12.316Z,16.08
2022-11-29T13:30:39.785Z,16.08
2022-11-29T13:33:12.255Z,15.89
2022-11-29T13:35:43.324Z,16.09
2022-11-29T13:38:14.229Z,16.07
2022-11-29T13:40:48.191Z,16.09
2022-11-29T13:43:18.328Z,16.10
2022-11-29T13:45:47.732Z,16.08
2022-11-29T13:48:37.013Z,16.01
2022-11-29T13:51:38.816Z,16.06
2022-11-29T13:54:07.052Z,15.70
2022-11-29T13:56:42.836Z,15.63
2022-11-29T13:59:18.195Z,16.07
2022-11-29T14:01:47.264Z,16.14
2022-11-29T14:04:25.507Z,15.57
2022-11-29T14:07:04.212Z,16.14
2022-11-29T14:09:34.692Z,16.13
2022-11-29T14:12:04.339Z,16.13
2022-11-29T14:14:34.885Z,16.12
2022-11-29T14:17:02.931Z,16.13
2022-11-29T14:19:33.845Z,16.13
2022-11-29T14:22:19.634Z,15.36
2022-11-29T14:25:00.829Z,16.13
2022-11-29T14:27:55.083Z,16.15
2022-11-29T14:30:48.690Z,16.13
2022-11-29T14:33:27.740Z,16.13
2022-11-29T14:36:00.905Z,16.07
2022-11-29T14:38:31.456Z,15.78
2022-11-29T14:41:00.261Z,16.15
2022-11-29T14:43:30.522Z,16.16
2022-11-29T14:46:08.174Z,16.07
2022-11-29T14:48:35.699Z,16.19
2022-11-29T14:51:09.881Z,15.95
2022-11-29T14:53:38.760Z,15.74
2022-11-29T14:56:38.726Z,16.07
2022-11-29T14:59:46.485Z,16.17
2022-11-29T15:02:24.317Z,16.17
2022-11-29T15:04:52.158Z,15.64
2022-11-29T15:07:24.509Z,16.20
2022-11-29T15:09:53.307Z,16.20
2022-11-29T15:12:22.590Z,15.74
2022-11-29T15:14:52.670Z,15.69
2022-11-29T15:17:24.359Z,16.18
2022-11-29T15:20:16.742Z,16.19
2022-11-29T15:22:47.305Z,16.01
2022-11-29T15:25:18.191Z,15.63
2022-11-29T15:27:55.099Z,16.20
2022-11-29T15:30:29.004Z,16.21
2022-11-29T15:32:56.548Z,16.20
2022-11-29T15:35:24.384Z,16.19
2022-11-29T15:37:51.836Z,16.20
2022-11-29T15:40:21.792Z,15.98
2022-11-29T15:42:50.524Z,15.79
2022-11-29T15:45:29.365Z,16.18
2022-11-29T15:47:57.338Z,16.10
2022-11-29T15:50:26.562Z,16.09
2022-11-29T15:52:55.279Z,16.06
2022-11-29T15:55:24.131Z,15.61
2022-11-29T15:57:52.138Z,15.78
2022-11-29T16:00:22.949Z,16.11
2022-11-29T16:02:51.529Z,16.11
2022-11-29T16:05:21.425Z,16.12
2022-11-29T16:07:49.389Z,16.12
2022-11-29T16:10:17.736Z,16.12
2022-11-29T16:12:53.673Z,16.12
2022-11-29T16:15:26.416Z,16.08
2022-11-29T16:17:53.899Z,16.06
2022-11-29T16:20:24.188Z,15.70
2022-11-29T16:23:14.113Z,16.03
2022-11-29T16:25:56.743Z,15.67
2022-11-29T16:28:26.242Z,15.96
2022-11-29T16:30:53.712Z,15.94
2022-11-29T16:33:23.073Z,15.91
2022-11-29T16:35:50.517Z,15.87
2022-11-29T16:38:20.312Z,15.11
2022-11-29T16:41:01.626Z,15.48
2022-11-29T16:43:53.536Z,15.80
2022-11-29T16:46:31.946Z,15.76
2022-11-29T16:49:00.727Z,15.25
2022-11-29T16:51:33.016Z,15.64
2022-11-29T16:54:20.062Z,15.64
2022-11-29T16:56:47.499Z,15.18
2022-11-29T16:59:25.115Z,15.50
2022-11-29T17:01:54.703Z,15.15
2022-11-29T17:04:24.187Z,15.50
2022-11-29T17:06:52.635Z,15.46
2022-11-29T17:09:25.152Z,15.33
2022-11-29T17:11:53.062Z,15.41
2022-11-29T17:14:21.818Z,15.38
2022-11-29T17:16:50.357Z,15.33
2022-11-29T17:19:18.053Z,15.31
2022-11-29T17:21:45.536Z,15.28
2022-11-29T17:24:14.343Z,14.66
2022-11-29T17:26:41.894Z,15.23
2022-11-29T17:29:10.798Z,14.87
2022-11-29T17:31:39.726Z,15.17
2022-11-29T17:34:07.239Z,14.71
2022-11-29T17:36:34.684Z,15.10
2022-11-29T17:39:02.322Z,15.07
2022-11-29T17:41:30.416Z,15.04
2022-11-29T17:43:57.984Z,15.01
2022-11-29T17:46:26.793Z,14.63
2022-11-29T17:48:55.651Z,14.27
2022-11-29T17:51:50.516Z,14.93
2022-11-29T17:54:11.387Z,14.88
2022-11-29T17:56:39.021Z,14.80
2022-11-29T17:59:06.687Z,14.73
2022-11-29T18:01:35.581Z,14.79
2022-11-29T18:04:05.562Z,14.76
2022-11-29T18:06:35.764Z,14.67
2022-11-29T18:09:03.262Z,14.70
2022-11-29T18:11:32.978Z,14.63
2022-11-29T18:14:06.517Z,14.65
2022-11-29T18:16:35.019Z,14.41
2022-11-29T18:19:05.103Z,14.61
2022-11-29T18:21:32.749Z,14.59
2022-11-29T18:24:00.480Z,14.17
2022-11-29T18:26:28.260Z,14.20
2022-11-29T18:28:55.723Z,14.53
2022-11-29T18:31:23.807Z,14.51
2022-11-29T18:33:52.788Z,14.48
2022-11-29T18:36:22.732Z,14.47
2022-11-29T18:38:50.213Z,14.44
2022-11-29T18:41:18.538Z,14.32
2022-11-29T18:43:46.075Z,14.41
2022-11-29T18:46:14.318Z,14.31
2022-11-29T18:48:41.829Z,13.91
2022-11-29T18:51:11.466Z,14.11
2022-11-29T18:53:40.326Z,14.34
2022-11-29T18:56:09.811Z,13.88
2022-11-29T18:58:37.917Z,14.30
2022-11-29T19:01:06.507Z,14.30
2022-11-29T19:03:35.811Z,14.29
2022-11-29T19:06:03.304Z,14.26
2022-11-29T19:08:30.737Z,14.24
2022-11-29T19:10:59.507Z,14.23
2022-11-29T19:13:26.940Z,14.21
2022-11-29T19:15:54.645Z,13.89
2022-11-29T19:18:22.201Z,13.69
2022-11-29T19:20:49.665Z,14.17
2022-11-29T19:23:17.113Z,14.15
2022-11-29T19:25:44.519Z,14.13
2022-11-29T19:28:14.350Z,14.11
2022-11-29T19:30:41.958Z,14.09
2022-11-29T19:33:09.460Z,14.08
2022-11-29T19:35:37.004Z,14.07
2022-11-29T19:38:04.453Z,14.06
2022-11-29T19:40:31.923Z,14.05
2022-11-29T19:42:59.400Z,14.02
2022-11-29T19:45:28.180Z,14.01
2022-11-29T19:47:55.632Z,14.01
2022-11-29T19:50:23.061Z,13.99
2022-11-29T19:52:50.627Z,13.98
2022-11-29T19:55:18.150Z,13.95
2022-11-29T19:57:45.614Z,13.93
2022-11-29T20:00:14.359Z,13.91
2022-11-29T20:02:43.159Z,13.88
2022-11-29T20:05:11.835Z,13.87
2022-11-29T20:07:39.395Z,13.84
2022-11-29T20:10:08.030Z,13.83
2022-11-29T20:12:35.463Z,13.82
2022-11-29T20:15:02.883Z,13.79
2022-11-29T20:17:30.359Z,13.79
2022-11-29T20:19:59.158Z,13.77
2022-11-29T20:22:26.664Z,13.76
2022-11-29T20:24:54.594Z,13.74
2022-11-29T20:27:23.301Z,13.74
2022-11-29T20:29:50.726Z,13.72
2022-11-29T20:32:18.383Z,13.72
2022-11-29T20:34:46.392Z,13.70
2022-11-29T20:37:30.139Z,13.70
2022-11-29T20:39:58.987Z,13.34
2022-11-29T20:42:51.584Z,13.56
2022-11-29T20:45:19.549Z,13.28
2022-11-29T20:47:50.828Z,13.46
2022-11-29T20:50:23.123Z,13.44
2022-11-29T20:52:57.487Z,13.62
2022-11-29T20:55:24.925Z,13.61
2022-11-29T20:57:52.419Z,13.59
2022-11-29T21:00:20.630Z,13.58
2022-11-29T21:02:48.092Z,13.57
2022-11-29T21:05:16.305Z,13.57
2022-11-29T21:07:43.892Z,13.38
2022-11-29T21:10:14.677Z,13.56
2022-11-29T21:12:42.622Z,13.54
2022-11-29T21:15:11.968Z,13.53
2022-11-29T21:17:40.585Z,13.51
2022-11-29T21:20:09.091Z,13.50
2022-11-29T21:22:39.336Z,13.21
2022-11-29T21:25:10.869Z,13.50
2022-11-29T21:27:40.250Z,13.49
2022-11-29T21:30:13.945Z,13.46
2022-11-29T21:32:42.501Z,13.45
2022-11-29T21:35:10.181Z,13.43
2022-11-29T21:37:37.632Z,13.42
2022-11-29T21:40:06.069Z,13.43
2022-11-29T21:42:33.568Z,13.42
2022-11-29T21:45:02.403Z,13.41
2022-11-29T21:47:30.404Z,13.39
2022-11-29T21:49:57.870Z,13.38
2022-11-29T21:52:25.326Z,13.37
2022-11-29T21:54:52.783Z,13.36
2022-11-29T21:57:20.219Z,13.35
2022-11-29T21:59:47.716Z,13.35
2022-11-29T22:02:16.663Z,13.33
2022-11-29T22:04:44.528Z,13.33
2022-11-29T22:07:12.287Z,13.31
2022-11-29T22:09:39.774Z,13.30
2022-11-29T22:12:26.196Z,13.31
2022-11-29T22:14:54.972Z,13.28
2022-11-29T22:17:23.831Z,13.27
2022-11-29T22:19:51.301Z,13.28
2022-11-29T22:22:18.803Z,13.21
2022-11-29T22:24:46.622Z,13.27
2022-11-29T22:27:14.246Z,13.24
2022-11-29T22:29:41.723Z,13.25
2022-11-29T22:32:09.159Z,13.24
2022-11-29T22:34:37.964Z,13.23
2022-11-29T22:37:05.433Z,13.22
2022-11-29T22:39:32.924Z,13.21
2022-11-29T22:42:00.377Z,13.20
2022-11-29T22:44:27.873Z,13.20
2022-11-29T22:46:55.393Z,13.20
2022-11-29T22:49:23.048Z,13.19
2022-11-29T22:51:52.207Z,13.17
2022-11-29T22:54:20.161Z,13.17
2022-11-29T22:56:47.746Z,13.17
2022-11-29T22:59:15.221Z,13.15
2022-11-29T23:01:42.979Z,12.91
2022-11-29T23:04:11.221Z,13.14
2022-11-29T23:06:39.492Z,13.13
2022-11-29T23:09:10.568Z,12.91
2022-11-29T23:11:38.118Z,13.11
2022-11-29T23:14:05.700Z,13.10
2022-11-29T23:16:33.607Z,13.09
2022-11-29T23:19:01.309Z,13.08
2022-11-29T23:21:29.595Z,12.86
2022-11-29T23:23:57.128Z,13.08
2022-11-29T23:26:26.752Z,13.09
2022-11-29T23:28:54.310Z,12.72
2022-11-29T23:31:22.351Z,13.06
2022-11-29T23:33:49.953Z,12.93
2022-11-29T23:36:17.573Z,12.70
2022-11-29T23:38:45.070Z,13.04
2022-11-29T23:41:12.822Z,13.05
2022-11-29T23:43:42.064Z,13.04
2022-11-29T23:46:10.477Z,13.04
2022-11-29T23:48:37.998Z,13.02
2022-11-29T23:51:05.506Z,13.01
2022-11-29T23:53:33.186Z,13.01
2022-11-29T23:56:01.302Z,12.76
2022-11-29T23:58:29.359Z,12.99
